createdAt,value
2022-08-05T00:03:32.757Z,23.85
2022-08-05T00:08:36.328Z,23.79
2022-08-05T00:13:40.231Z,23.76
2022-08-05T00:18:48.174Z,23.69
2022-08-05T00:23:53.746Z,23.61
2022-08-05T00:29:13.250Z,23.53
2022-08-05T00:34:55.794Z,23.44
2022-08-05T00:39:41.481Z,23.36
2022-08-05T00:44:46.067Z,23.32
2022-08-05T00:49:51.525Z,23.27
2022-08-05T00:54:53.980Z,23.23
2022-08-05T00:59:58.104Z,23.20
2022-08-05T01:05:00.329Z,23.17
2022-08-05T01:10:03.679Z,23.16
2022-08-05T01:15:35.351Z,23.18
2022-08-05T01:20:50.677Z,23.13
2022-08-05T01:26:10.639Z,23.38
2022-08-05T01:31:21.974Z,23.31
2022-08-05T01:36:29.540Z,23.29
2022-08-05T01:41:36.609Z,23.27
2022-08-05T01:46:46.267Z,23.02
2022-08-05T01:51:51.836Z,23.08
2022-08-05T01:58:09.772Z,22.98
2022-08-05T02:02:28.388Z,23.00
2022-08-05T02:07:33.757Z,22.92
2022-08-05T02:12:58.354Z,23.07
2022-08-05T02:18:27.884Z,22.96
2022-08-05T02:23:38.331Z,22.78
2022-08-05T02:28:45.934Z,22.85
2022-08-05T02:33:57.473Z,22.94
2022-08-05T02:39:01.862Z,22.88
2022-08-05T02:44:11.263Z,23.03
2022-08-05T02:49:18.033Z,23.05
2022-08-05T02:54:35.768Z,22.98
2022-08-05T02:59:50.717Z,23.06
2022-08-05T03:04:55.470Z,23.16
2022-08-05T03:09:57.947Z,23.30
2022-08-05T03:15:00.483Z,23.50
2022-08-05T03:20:02.694Z,23.67
2022-08-05T03:25:32.860Z,23.85
2022-08-05T03:30:34.232Z,24.09
2022-08-05T03:35:40.895Z,24.17
2022-08-05T03:40:47.321Z,24.41
2022-08-05T03:45:57.129Z,24.52
2022-08-05T03:52:38.509Z,24.87
2022-08-05T03:56:41.489Z,25.06
2022-08-05T04:01:47.019Z,25.23
2022-08-05T04:06:51.738Z,25.24
2022-08-05T04:11:56.538Z,25.33
2022-08-05T04:17:03.068Z,25.45
2022-08-05T04:22:11.858Z,25.38
2022-08-05T04:27:15.215Z,25.28
2022-08-05T04:32:29.657Z,25.29
2022-08-05T04:38:02.201Z,25.32
2022-08-05T04:42:56.348Z,25.49
2022-08-05T04:48:16.369Z,25.95
2022-08-05T04:53:29.266Z,26.00
2022-08-05T04:58:36.619Z,26.15
2022-08-05T05:03:41.925Z,26.33
2022-08-05T05:08:44.668Z,26.37
2022-08-05T05:13:52.042Z,26.41
2022-08-05T05:19:18.823Z,26.45
2022-08-05T05:24:21.793Z,26.65
2022-08-05T05:29:23.913Z,27.03
2022-08-05T05:34:43.015Z,27.35
2022-08-05T05:39:45.170Z,27.57
2022-08-05T05:44:47.414Z,27.70
2022-08-05T05:49:56.602Z,27.71
2022-08-05T05:55:13.282Z,27.83
2022-08-05T06:00:19.332Z,27.98
2022-08-05T06:05:22.122Z,28.42
2022-08-05T06:10:24.538Z,29.14
2022-08-05T06:16:28.359Z,29.94
2022-08-05T06:20:54.085Z,30.62
2022-08-05T06:26:12.445Z,31.15
2022-08-05T06:31:21.960Z,32.66
2022-08-05T06:36:25.835Z,33.79
2022-08-05T06:41:28.209Z,35.60
2022-08-05T06:46:36.786Z,37.00
2022-08-05T06:51:40.889Z,37.77
2022-08-05T06:56:54.475Z,38.64
2022-08-05T07:01:57.294Z,38.84
2022-08-05T07:06:59.292Z,39.81
2022-08-05T07:12:01.295Z,39.59
2022-08-05T07:17:58.330Z,38.50
2022-08-05T07:22:28.646Z,40.16
2022-08-05T07:27:58.150Z,40.73
2022-08-05T07:32:54.678Z,40.80
2022-08-05T07:37:57.165Z,40.51
2022-08-05T07:42:59.269Z,40.39
2022-08-05T07:48:06.858Z,39.35
2022-08-05T07:53:10.774Z,39.30
2022-08-05T07:58:17.785Z,39.27
2022-08-05T08:03:44.407Z,40.40
2022-08-05T08:08:47.225Z,41.48
2022-08-05T08:14:01.199Z,42.27
2022-08-05T08:19:03.467Z,42.96
2022-08-05T08:24:13.587Z,43.86
2022-08-05T08:30:03.061Z,44.24
2022-08-05T08:34:38.266Z,44.21
2022-08-05T08:39:44.251Z,43.45
2022-08-05T08:45:23.973Z,43.21
2022-08-05T08:50:33.043Z,43.66
2022-08-05T08:56:03.566Z,44.59
2022-08-05T09:01:03.948Z,44.99
2022-08-05T09:06:08.778Z,45.39
2022-08-05T09:11:15.104Z,46.39
2022-08-05T09:16:17.373Z,46.56
2022-08-05T09:22:22.474Z,46.82
2022-08-05T09:26:51.703Z,46.81
2022-08-05T09:32:42.787Z,46.44
2022-08-05T09:38:15.923Z,46.17
2022-08-05T09:42:50.931Z,47.14
2022-08-05T09:47:56.750Z,48.09
2022-08-05T09:52:59.548Z,50.07
2022-08-05T09:58:14.271Z,51.25
2022-08-05T10:03:16.380Z,52.04
2022-08-05T10:08:36.322Z,51.99
2022-08-05T10:13:47.435Z,51.86
2022-08-05T10:18:50.763Z,52.03
2022-08-05T10:23:59.252Z,51.50
2022-08-05T10:29:02.869Z,52.25
2022-08-05T10:34:07.038Z,52.77
2022-08-05T10:40:03.255Z,53.67
2022-08-05T10:44:47.983Z,52.97
2022-08-05T10:50:35.249Z,50.80
2022-08-05T10:56:03.196Z,50.27
2022-08-05T11:01:08.343Z,49.69
2022-08-05T11:06:16.184Z,50.17
2022-08-05T11:11:44.513Z,51.03
2022-08-05T11:17:57.778Z,52.04
2022-08-05T11:22:54.045Z,51.91
2022-08-05T11:28:17.565Z,51.05
2022-08-05T11:33:54.997Z,47.76
2022-08-05T11:38:57.722Z,47.19
2022-08-05T11:44:21.630Z,47.40
2022-08-05T11:49:36.992Z,48.66
2022-08-05T11:54:41.613Z,49.51
2022-08-05T11:59:50.349Z,49.35
2022-08-05T12:04:59.184Z,49.81
2022-08-05T12:10:09.550Z,51.00
2022-08-05T12:15:35.755Z,51.86
2022-08-05T12:20:40.827Z,50.03
2022-08-05T12:25:50.474Z,47.35
2022-08-05T12:30:53.105Z,43.96
2022-08-05T12:35:58.242Z,42.44
2022-08-05T12:41:00.375Z,42.11
2022-08-05T12:46:03.297Z,41.75
2022-08-05T12:52:10.062Z,41.50
2022-08-05T12:56:45.161Z,40.75
2022-08-05T13:02:06.864Z,41.34
2022-08-05T13:07:35.822Z,40.66
2022-08-05T13:12:51.233Z,39.86
2022-08-05T13:18:00.065Z,38.98
2022-08-05T13:23:07.085Z,38.73
2022-08-05T13:28:10.660Z,38.46
2022-08-05T13:33:14.358Z,38.55
2022-08-05T13:38:36.210Z,39.31
2022-08-05T13:43:54.735Z,39.96
2022-08-05T13:49:00.375Z,39.94
2022-08-05T13:54:03.326Z,39.78
2022-08-05T13:59:20.178Z,39.34
2022-08-05T14:04:41.762Z,38.99
2022-08-05T14:09:46.343Z,37.97
2022-08-05T14:14:49.074Z,36.77
2022-08-05T14:19:56.926Z,35.94
2022-08-05T14:25:06.440Z,35.39
2022-08-05T14:30:26.625Z,34.86
2022-08-05T14:35:37.129Z,34.42
2022-08-05T14:40:52.034Z,34.06
2022-08-05T14:45:54.117Z,33.81
2022-08-05T14:50:56.269Z,33.52
2022-08-05T14:55:58.435Z,33.48
2022-08-05T15:01:01.727Z,33.39
2022-08-05T15:06:12.796Z,33.48
2022-08-05T15:11:17.833Z,33.48
2022-08-05T15:16:21.551Z,33.40
2022-08-05T15:21:24.457Z,33.35
2022-08-05T15:26:32.234Z,33.25
2022-08-05T15:31:35.126Z,33.22
2022-08-05T15:36:37.243Z,33.20
2022-08-05T15:41:56.071Z,33.20
2022-08-05T15:47:04.410Z,33.36
2022-08-05T15:52:16.130Z,33.26
2022-08-05T15:57:20.473Z,33.20
2022-08-05T16:02:25.496Z,33.21
2022-08-05T16:07:28.735Z,33.22
2022-08-05T16:12:31.791Z,33.09
2022-08-05T16:17:34.039Z,32.61
2022-08-05T16:22:36.503Z,32.30
2022-08-05T16:28:01.063Z,32.10
2022-08-05T16:33:02.966Z,31.84
2022-08-05T16:38:18.752Z,31.71
2022-08-05T16:43:30.423Z,31.57
2022-08-05T16:48:33.907Z,31.41
2022-08-05T16:54:04.954Z,31.35
2022-08-05T16:59:08.134Z,31.12
2022-08-05T17:04:10.720Z,30.92
2022-08-05T17:09:12.755Z,30.71
2022-08-05T17:14:34.482Z,30.48
2022-08-05T17:19:38.782Z,30.29
2022-08-05T17:24:47.392Z,30.01
2022-08-05T17:30:00.825Z,29.92
2022-08-05T17:35:06.455Z,29.76
2022-08-05T17:40:12.789Z,29.66
2022-08-05T17:45:20.193Z,29.46
2022-08-05T17:50:30.051Z,29.39
2022-08-05T17:55:38.332Z,29.12
2022-08-05T18:00:51.032Z,28.94
2022-08-05T18:05:54.265Z,29.34
2022-08-05T18:10:56.622Z,28.70
2022-08-05T18:15:59.406Z,28.56
2022-08-05T18:21:13.352Z,28.43
2022-08-05T18:26:29.611Z,28.43
2022-08-05T18:31:35.532Z,28.20
2022-08-05T18:36:38.074Z,28.10
2022-08-05T18:41:59.235Z,27.98
2022-08-05T18:47:03.879Z,27.90
2022-08-05T18:52:33.122Z,27.74
2022-08-05T18:57:50.156Z,27.64
2022-08-05T19:02:56.018Z,27.57
2022-08-05T19:08:02.002Z,27.44
2022-08-05T19:13:04.106Z,27.40
2022-08-05T19:18:13.606Z,27.32
2022-08-05T19:24:07.034Z,27.28
2022-08-05T19:28:46.587Z,27.25
2022-08-05T19:33:56.330Z,27.16
2022-08-05T19:39:01.077Z,26.99
2022-08-05T19:44:13.730Z,26.98
2022-08-05T19:49:16.978Z,26.90
2022-08-05T19:54:25.500Z,26.74
2022-08-05T19:59:55.525Z,26.60
2022-08-05T20:04:59.480Z,26.46
2022-08-05T20:10:04.846Z,26.34
2022-08-05T20:15:13.971Z,26.22
2022-08-05T20:20:16.215Z,26.16
2022-08-05T20:25:18.334Z,26.04
2022-08-05T20:30:20.389Z,26.11
2022-08-05T20:35:28.522Z,26.07
2022-08-05T20:40:35.436Z,26.04
2022-08-05T20:45:56.061Z,26.02
2022-08-05T20:50:59.131Z,26.46
2022-08-05T20:56:10.275Z,25.83
2022-08-05T21:01:12.362Z,25.70
2022-08-05T21:06:28.121Z,25.59
2022-08-05T21:12:09.192Z,25.48
2022-08-05T21:16:53.371Z,25.34
2022-08-05T21:21:55.646Z,25.35
2022-08-05T21:26:58.220Z,25.29
2022-08-05T21:32:04.400Z,25.21
2022-08-05T21:37:08.257Z,25.04
2022-08-05T21:42:31.154Z,25.08
2022-08-05T21:47:57.208Z,25.02
2022-08-05T21:52:58.992Z,24.95
2022-08-05T21:58:07.036Z,24.88
2022-08-05T22:03:15.258Z,24.78
2022-08-05T22:08:22.464Z,24.69
2022-08-05T22:14:32.384Z,24.65
2022-08-05T22:18:49.037Z,24.59
2022-08-05T22:24:13.302Z,24.48
2022-08-05T22:29:32.982Z,24.53
2022-08-05T22:34:35.383Z,24.46
2022-08-05T22:39:38.341Z,24.41
2022-08-05T22:44:48.342Z,24.37
2022-08-05T22:50:23.100Z,24.30
2022-08-05T22:55:23.941Z,24.27
2022-08-05T23:00:28.632Z,24.16
2022-08-05T23:05:36.187Z,24.07
2022-08-05T23:10:38.799Z,23.97
2022-08-05T23:15:41.058Z,23.96
2022-08-05T23:20:43.351Z,23.94
2022-08-05T23:25:52.346Z,23.85
2022-08-05T23:31:16.495Z,23.80
2022-08-05T23:36:20.696Z,23.83
2022-08-05T23:41:22.746Z,23.80
2022-08-05T23:46:26.142Z,23.79
2022-08-05T23:51:52.649Z,23.76
2022-08-05T23:57:03.871Z,23.71
